CCA4201 ZUUU-ZWWW
Flight info
| Callsign | CCA4201 |
|---|---|
| Flight time | 3h 8m |
| Altitude | 34100 |
| Route | BOKIR9W BOKIR W179 OMBON W195 LAXAL/K0861S0980 W195 IDOPA W197 ANDIM B215 OMGUP/K0856S1040 B215 IBANO G470 QTV W99 AGOXA AGOXA5U |
| Aircraft | A321/M-SDE3FGHIRWY/LB1 |
Departure
| Time | 2026-05-01 09:04 |
|---|---|
| Airport | Chengdu Shuangliu International Airport (ZUUU) |
Arrival
| Time | 2026-05-01 12:12 |
|---|---|
| Airport | Ürümqi Tianshan International Airport (ZWWW) |
| Time | Latitude | Longitude | Altitude | Speed | Heading |
|---|---|---|---|---|---|
| 2026-05-01 08:52 | 30.56934 | 103.94941 | 1647 ft | 0 kts | 19° |
| 2026-05-01 08:55 | 30.56933 | 103.94941 | 1647 ft | 0 kts | 19° |
| 2026-05-01 08:57 | 30.56924 | 103.94937 | 1647 ft | 2 kts | 19° |
| 2026-05-01 08:58 | 30.56908 | 103.94931 | 1647 ft | 2 kts | 19° |
| 2026-05-01 08:58 | 30.56893 | 103.94925 | 1647 ft | 2 kts | 19° |
| 2026-05-01 08:58 | 30.56877 | 103.94920 | 1647 ft | 2 kts | 339° |
| 2026-05-01 08:58 | 30.56867 | 103.94927 | 1647 ft | 0 kts | 292° |
| 2026-05-01 08:59 | 30.56871 | 103.94916 | 1647 ft | 6 kts | 292° |
| 2026-05-01 08:59 | 30.56902 | 103.94826 | 1647 ft | 18 kts | 292° |
| 2026-05-01 09:00 | 30.56956 | 103.94676 | 1647 ft | 20 kts | 292° |
| 2026-05-01 09:00 | 30.56905 | 103.94585 | 1647 ft | 14 kts | 200° |
| 2026-05-01 09:00 | 30.56820 | 103.94544 | 1647 ft | 12 kts | 202° |
| 2026-05-01 09:00 | 30.56748 | 103.94510 | 1647 ft | 10 kts | 202° |
| 2026-05-01 09:01 | 30.56692 | 103.94483 | 1647 ft | 8 kts | 202° |
| 2026-05-01 09:01 | 30.56616 | 103.94447 | 1647 ft | 18 kts | 202° |
| 2026-05-01 09:01 | 30.56496 | 103.94391 | 1647 ft | 18 kts | 202° |
| 2026-05-01 09:01 | 30.56384 | 103.94339 | 1647 ft | 16 kts | 201° |
| 2026-05-01 09:02 | 30.56289 | 103.94288 | 1647 ft | 14 kts | 222° |
| 2026-05-01 09:02 | 30.56288 | 103.94194 | 1647 ft | 11 kts | 291° |
| 2026-05-01 09:02 | 30.56314 | 103.94115 | 1647 ft | 10 kts | 291° |
| 2026-05-01 09:02 | 30.56342 | 103.94052 | 1647 ft | 8 kts | 307° |
| 2026-05-01 09:03 | 30.56390 | 103.94028 | 1647 ft | 10 kts | 1° |
| 2026-05-01 09:03 | 30.56475 | 103.94065 | 1649 ft | 17 kts | 22° |
| 2026-05-01 09:03 | 30.56710 | 103.94173 | 1649 ft | 67 kts | 22° |
| 2026-05-01 09:03 | 30.57330 | 103.94460 | 1645 ft | 122 kts | 21° |
| 2026-05-01 09:04 | 30.58261 | 103.94892 | 1647 ft | 164 kts | 21° |
| 2026-05-01 09:04 | 30.59393 | 103.95416 | 1965 ft | 175 kts | 21° |
| 2026-05-01 09:04 | 30.60527 | 103.95946 | 2557 ft | 175 kts | 21° |
| 2026-05-01 09:04 | 30.61663 | 103.96474 | 2995 ft | 179 kts | 23° |
| 2026-05-01 09:05 | 30.62872 | 103.97037 | 3126 ft | 197 kts | 23° |
| 2026-05-01 09:05 | 30.64222 | 103.97667 | 3283 ft | 220 kts | 22° |
| 2026-05-01 09:05 | 30.65698 | 103.98359 | 3439 ft | 243 kts | 22° |
| 2026-05-01 09:05 | 30.67302 | 103.99108 | 3923 ft | 252 kts | 23° |
| 2026-05-01 09:06 | 30.68765 | 104.00220 | 4534 ft | 256 kts | 49° |
| 2026-05-01 09:06 | 30.69792 | 104.01924 | 5185 ft | 259 kts | 58° |
| 2026-05-01 09:06 | 30.70688 | 104.03757 | 5829 ft | 263 kts | 60° |
| 2026-05-01 09:06 | 30.71561 | 104.05652 | 6407 ft | 268 kts | 60° |
| 2026-05-01 09:07 | 30.72448 | 104.07569 | 6956 ft | 271 kts | 60° |
| 2026-05-01 09:07 | 30.73362 | 104.09500 | 7532 ft | 275 kts | 60° |
| 2026-05-01 09:07 | 30.74306 | 104.11451 | 8111 ft | 279 kts | 60° |
| 2026-05-01 09:07 | 30.75272 | 104.13418 | 8713 ft | 281 kts | 60° |
| 2026-05-01 09:08 | 30.76513 | 104.15172 | 9277 ft | 285 kts | 36° |
| 2026-05-01 09:08 | 30.78325 | 104.16154 | 9755 ft | 292 kts | 20° |
| 2026-05-01 09:08 | 30.80266 | 104.16943 | 10175 ft | 299 kts | 20° |
| 2026-05-01 09:08 | 30.82279 | 104.17767 | 10340 ft | 317 kts | 20° |
| 2026-05-01 09:09 | 30.84417 | 104.18653 | 10457 ft | 335 kts | 20° |
| 2026-05-01 09:09 | 30.86665 | 104.19594 | 10584 ft | 352 kts | 20° |
| 2026-05-01 09:09 | 30.89026 | 104.20590 | 10703 ft | 369 kts | 20° |
| 2026-05-01 09:09 | 30.91487 | 104.21635 | 10809 ft | 384 kts | 20° |
| 2026-05-01 09:10 | 30.94038 | 104.22727 | 11056 ft | 394 kts | 20° |
| 2026-05-01 09:10 | 30.96625 | 104.23839 | 11486 ft | 399 kts | 20° |
| 2026-05-01 09:10 | 30.99218 | 104.25031 | 11873 ft | 404 kts | 22° |
| 2026-05-01 09:10 | 31.01828 | 104.26314 | 12268 ft | 409 kts | 22° |
| 2026-05-01 09:11 | 31.04450 | 104.27648 | 12627 ft | 414 kts | 22° |
| 2026-05-01 09:11 | 31.07103 | 104.29013 | 13011 ft | 419 kts | 22° |
| 2026-05-01 09:11 | 31.09787 | 104.30390 | 13355 ft | 424 kts | 22° |
| 2026-05-01 09:11 | 31.12468 | 104.31753 | 13664 ft | 428 kts | 22° |
| 2026-05-01 09:12 | 31.15213 | 104.33129 | 13982 ft | 431 kts | 21° |
| 2026-05-01 09:12 | 31.17987 | 104.34509 | 14337 ft | 433 kts | 21° |
| 2026-05-01 09:12 | 31.20768 | 104.35890 | 14700 ft | 434 kts | 21° |
| 2026-05-01 09:12 | 31.23611 | 104.37089 | 15047 ft | 434 kts | 12° |
| 2026-05-01 09:13 | 31.26570 | 104.37714 | 15389 ft | 432 kts | 2° |
| 2026-05-01 09:13 | 31.29564 | 104.37752 | 15725 ft | 431 kts | 354° |
| 2026-05-01 09:13 | 31.32564 | 104.37566 | 16067 ft | 432 kts | 354° |
| 2026-05-01 09:13 | 31.35572 | 104.37383 | 16417 ft | 434 kts | 354° |
| 2026-05-01 09:14 | 31.38594 | 104.37205 | 16764 ft | 435 kts | 354° |
| 2026-05-01 09:14 | 31.41622 | 104.37029 | 17107 ft | 437 kts | 354° |
| 2026-05-01 09:14 | 31.44665 | 104.36854 | 17439 ft | 438 kts | 354° |
| 2026-05-01 09:14 | 31.47717 | 104.36677 | 17774 ft | 440 kts | 354° |
| 2026-05-01 09:15 | 31.50779 | 104.36499 | 18089 ft | 441 kts | 354° |
| 2026-05-01 09:15 | 31.53851 | 104.36320 | 18375 ft | 443 kts | 354° |
| 2026-05-01 09:15 | 31.56940 | 104.36139 | 18603 ft | 446 kts | 354° |
| 2026-05-01 09:15 | 31.60048 | 104.35957 | 18873 ft | 448 kts | 354° |
| 2026-05-01 09:16 | 31.63167 | 104.35773 | 19166 ft | 450 kts | 354° |
| 2026-05-01 09:16 | 31.66301 | 104.35587 | 19453 ft | 451 kts | 354° |
| 2026-05-01 09:16 | 31.69444 | 104.35400 | 19743 ft | 453 kts | 354° |
| 2026-05-01 09:17 | 31.75758 | 104.35027 | 20309 ft | 456 kts | 354° |
| 2026-05-01 09:17 | 31.78931 | 104.34846 | 20579 ft | 457 kts | 354° |
| 2026-05-01 09:17 | 31.85326 | 104.34517 | 21086 ft | 462 kts | 354° |
| 2026-05-01 09:18 | 31.88542 | 104.34361 | 21352 ft | 464 kts | 354° |
| 2026-05-01 09:18 | 31.94989 | 104.34041 | 21898 ft | 467 kts | 354° |
| 2026-05-01 09:19 | 32.01507 | 104.33704 | 22445 ft | 470 kts | 353° |
| 2026-05-01 09:19 | 32.04782 | 104.33534 | 22713 ft | 472 kts | 353° |
| 2026-05-01 09:19 | 32.08068 | 104.33365 | 23053 ft | 473 kts | 354° |
| 2026-05-01 09:20 | 32.14684 | 104.33025 | 23445 ft | 478 kts | 354° |
| 2026-05-01 09:20 | 32.21354 | 104.32682 | 23848 ft | 480 kts | 353° |
| 2026-05-01 09:21 | 32.28039 | 104.32343 | 24293 ft | 482 kts | 353° |
| 2026-05-01 09:21 | 32.31347 | 104.32172 | 24505 ft | 482 kts | 353° |
| 2026-05-01 09:21 | 32.38110 | 104.31818 | 24892 ft | 485 kts | 354° |
| 2026-05-01 09:22 | 32.44826 | 104.31475 | 25326 ft | 487 kts | 354° |
| 2026-05-01 09:22 | 32.51597 | 104.31149 | 25954 ft | 485 kts | 354° |
| 2026-05-01 09:23 | 32.54965 | 104.30991 | 26269 ft | 483 kts | 354° |
| 2026-05-01 09:23 | 32.61659 | 104.30676 | 26951 ft | 480 kts | 354° |
| 2026-05-01 09:24 | 32.68328 | 104.30355 | 27606 ft | 478 kts | 354° |
| 2026-05-01 09:24 | 32.71648 | 104.30197 | 27909 ft | 477 kts | 354° |
| 2026-05-01 09:24 | 32.78269 | 104.29875 | 28522 ft | 475 kts | 354° |
| 2026-05-01 09:25 | 32.84866 | 104.29559 | 29081 ft | 473 kts | 354° |
| 2026-05-01 09:25 | 32.91454 | 104.29240 | 29466 ft | 475 kts | 353° |
| 2026-05-01 09:26 | 32.94773 | 104.29073 | 29632 ft | 477 kts | 353° |
| 2026-05-01 09:26 | 33.01402 | 104.28754 | 30113 ft | 477 kts | 353° |
| 2026-05-01 09:26 | 33.04711 | 104.28598 | 30324 ft | 476 kts | 353° |
| 2026-05-01 09:27 | 33.11327 | 104.28279 | 30738 ft | 475 kts | 353° |
| 2026-05-01 09:27 | 33.14625 | 104.28118 | 30927 ft | 475 kts | 353° |
| 2026-05-01 09:27 | 33.16812 | 104.28010 | 31061 ft | 474 kts | 353° |
| 2026-05-01 09:28 | 33.20108 | 104.27850 | 31325 ft | 473 kts | 353° |
| 2026-05-01 09:28 | 33.24506 | 104.27637 | 31663 ft | 473 kts | 353° |
| 2026-05-01 09:28 | 33.26682 | 104.27530 | 31822 ft | 472 kts | 353° |
| 2026-05-01 09:28 | 33.29959 | 104.27367 | 32080 ft | 471 kts | 352° |
| 2026-05-01 09:29 | 33.36239 | 104.26183 | 32556 ft | 458 kts | 336° |
| 2026-05-01 09:30 | 33.39987 | 104.24203 | 32868 ft | 449 kts | 324° |
| 2026-05-01 09:30 | 33.42697 | 104.22345 | 33046 ft | 449 kts | 324° |
| 2026-05-01 09:30 | 33.48132 | 104.18629 | 33376 ft | 450 kts | 325° |
| 2026-05-01 09:31 | 33.50860 | 104.16770 | 33504 ft | 452 kts | 325° |
| 2026-05-01 09:31 | 33.53599 | 104.14907 | 33635 ft | 453 kts | 325° |
| 2026-05-01 09:31 | 33.59427 | 104.11869 | 33928 ft | 466 kts | 341° |
| 2026-05-01 09:32 | 33.62657 | 104.11230 | 33974 ft | 476 kts | 352° |
| 2026-05-01 09:32 | 33.72682 | 104.11213 | 33973 ft | 481 kts | 355° |
| 2026-05-01 09:33 | 33.79382 | 104.11206 | 33974 ft | 482 kts | 355° |
| 2026-05-01 09:34 | 33.89437 | 104.11187 | 33978 ft | 482 kts | 355° |
| 2026-05-01 09:34 | 33.99517 | 104.11187 | 34015 ft | 483 kts | 355° |
| 2026-05-01 09:35 | 34.09587 | 104.11197 | 34013 ft | 482 kts | 355° |
| 2026-05-01 09:36 | 34.16299 | 104.11199 | 34025 ft | 482 kts | 355° |
| 2026-05-01 09:36 | 34.23004 | 104.11199 | 34044 ft | 482 kts | 355° |
| 2026-05-01 09:37 | 34.29723 | 104.11184 | 34041 ft | 482 kts | 355° |
| 2026-05-01 09:37 | 34.39754 | 104.11191 | 34046 ft | 482 kts | 355° |
| 2026-05-01 09:38 | 34.49819 | 104.11197 | 34054 ft | 483 kts | 355° |
| 2026-05-01 09:39 | 34.59903 | 104.11196 | 34053 ft | 483 kts | 355° |
| 2026-05-01 09:39 | 34.66628 | 104.11195 | 34058 ft | 483 kts | 355° |
| 2026-05-01 09:40 | 34.76718 | 104.11196 | 34076 ft | 483 kts | 355° |
| 2026-05-01 09:41 | 34.83441 | 104.11202 | 34086 ft | 483 kts | 355° |
| 2026-05-01 09:41 | 34.93481 | 104.11193 | 34102 ft | 482 kts | 355° |
| 2026-05-01 09:42 | 35.00189 | 104.11197 | 34097 ft | 482 kts | 355° |
| 2026-05-01 09:43 | 35.13621 | 104.11198 | 34101 ft | 482 kts | 355° |
| 2026-05-01 09:43 | 35.20289 | 104.11190 | 34112 ft | 482 kts | 355° |
| 2026-05-01 09:44 | 35.30353 | 104.11194 | 34107 ft | 482 kts | 355° |
| 2026-05-01 09:45 | 35.37051 | 104.11199 | 34115 ft | 481 kts | 355° |
| 2026-05-01 09:45 | 35.47109 | 104.11192 | 34122 ft | 481 kts | 355° |
| 2026-05-01 09:46 | 35.53820 | 104.11202 | 34114 ft | 482 kts | 355° |
| 2026-05-01 09:46 | 35.60480 | 104.11231 | 34110 ft | 482 kts | 355° |
| 2026-05-01 09:47 | 35.67185 | 104.11262 | 34117 ft | 482 kts | 355° |
| 2026-05-01 09:47 | 35.73899 | 104.11303 | 34126 ft | 482 kts | 355° |
| 2026-05-01 09:48 | 35.80607 | 104.11336 | 34125 ft | 482 kts | 355° |
| 2026-05-01 09:48 | 35.87268 | 104.10872 | 34132 ft | 478 kts | 349° |
| 2026-05-01 09:49 | 35.93898 | 104.10138 | 34154 ft | 479 kts | 349° |
| 2026-05-01 09:49 | 36.00539 | 104.09406 | 34150 ft | 479 kts | 349° |
| 2026-05-01 09:50 | 36.07183 | 104.08683 | 34151 ft | 479 kts | 349° |
| 2026-05-01 09:50 | 36.13829 | 104.07964 | 34156 ft | 479 kts | 349° |
| 2026-05-01 09:51 | 36.20476 | 104.07229 | 34163 ft | 480 kts | 349° |
| 2026-05-01 09:51 | 36.27133 | 104.06491 | 34150 ft | 481 kts | 349° |
| 2026-05-01 09:52 | 36.33755 | 104.05767 | 34148 ft | 481 kts | 349° |
| 2026-05-01 09:52 | 36.40432 | 104.05041 | 34165 ft | 481 kts | 349° |
| 2026-05-01 09:53 | 36.47109 | 104.04302 | 34161 ft | 481 kts | 349° |
| 2026-05-01 09:53 | 36.53761 | 104.03464 | 34155 ft | 476 kts | 342° |
| 2026-05-01 09:54 | 36.56917 | 104.02355 | 34152 ft | 466 kts | 331° |
| 2026-05-01 09:54 | 36.59788 | 104.00588 | 34154 ft | 456 kts | 321° |
| 2026-05-01 09:54 | 36.64438 | 103.95511 | 34151 ft | 438 kts | 302° |
| 2026-05-01 09:55 | 36.67538 | 103.89159 | 34173 ft | 430 kts | 292° |
| 2026-05-01 09:55 | 36.70385 | 103.82598 | 34180 ft | 430 kts | 292° |
| 2026-05-01 09:56 | 36.73228 | 103.76031 | 34190 ft | 430 kts | 292° |
| 2026-05-01 09:56 | 36.76072 | 103.69468 | 34185 ft | 430 kts | 292° |
| 2026-05-01 09:57 | 36.78913 | 103.62902 | 34182 ft | 430 kts | 292° |
| 2026-05-01 09:57 | 36.81742 | 103.56333 | 34180 ft | 430 kts | 292° |
| 2026-05-01 09:58 | 36.84566 | 103.49756 | 34178 ft | 430 kts | 292° |
| 2026-05-01 09:58 | 36.87368 | 103.43216 | 34201 ft | 430 kts | 292° |
| 2026-05-01 09:59 | 36.90186 | 103.36627 | 34196 ft | 430 kts | 292° |
| 2026-05-01 09:59 | 36.93003 | 103.30026 | 34194 ft | 430 kts | 292° |
| 2026-05-01 10:00 | 36.95985 | 103.23501 | 34194 ft | 434 kts | 295° |
| 2026-05-01 10:00 | 36.99267 | 103.17151 | 34223 ft | 435 kts | 297° |
| 2026-05-01 10:01 | 37.02579 | 103.10810 | 34230 ft | 435 kts | 297° |
| 2026-05-01 10:01 | 37.05817 | 103.04402 | 34225 ft | 435 kts | 296° |
| 2026-05-01 10:02 | 37.09016 | 102.97977 | 34216 ft | 435 kts | 296° |
| 2026-05-01 10:02 | 37.12201 | 102.91591 | 34227 ft | 435 kts | 296° |
| 2026-05-01 10:03 | 37.15416 | 102.85169 | 34228 ft | 435 kts | 296° |
| 2026-05-01 10:03 | 37.18629 | 102.78722 | 34227 ft | 435 kts | 296° |
| 2026-05-01 10:04 | 37.21829 | 102.72279 | 34247 ft | 435 kts | 295° |
| 2026-05-01 10:04 | 37.25022 | 102.65845 | 34252 ft | 434 kts | 295° |
| 2026-05-01 10:05 | 37.28214 | 102.59421 | 34261 ft | 433 kts | 295° |
| 2026-05-01 10:05 | 37.31396 | 102.52998 | 34250 ft | 433 kts | 295° |
| 2026-05-01 10:06 | 37.34553 | 102.46574 | 34233 ft | 430 kts | 293° |
| 2026-05-01 10:06 | 37.36685 | 102.39731 | 34249 ft | 416 kts | 278° |
| 2026-05-01 10:07 | 37.38063 | 102.32667 | 34233 ft | 416 kts | 278° |
| 2026-05-01 10:07 | 37.39451 | 102.25617 | 34218 ft | 414 kts | 278° |
| 2026-05-01 10:08 | 37.41500 | 102.15115 | 34198 ft | 414 kts | 278° |
| 2026-05-01 10:09 | 37.42869 | 102.08088 | 34195 ft | 413 kts | 278° |
| 2026-05-01 10:09 | 37.44230 | 102.01063 | 34196 ft | 413 kts | 277° |
| 2026-05-01 10:10 | 37.45582 | 101.94042 | 34186 ft | 413 kts | 277° |
| 2026-05-01 10:10 | 37.47614 | 101.83507 | 34161 ft | 413 kts | 277° |
| 2026-05-01 10:11 | 37.48966 | 101.76464 | 34157 ft | 413 kts | 277° |
| 2026-05-01 10:11 | 37.50356 | 101.69435 | 34131 ft | 416 kts | 282° |
| 2026-05-01 10:12 | 37.52373 | 101.63844 | 34171 ft | 425 kts | 289° |
| 2026-05-01 10:13 | 37.56875 | 101.52770 | 34155 ft | 426 kts | 289° |
| 2026-05-01 10:13 | 37.59554 | 101.46146 | 34155 ft | 426 kts | 289° |
| 2026-05-01 10:14 | 37.63579 | 101.36144 | 34134 ft | 426 kts | 289° |
| 2026-05-01 10:14 | 37.66274 | 101.29486 | 34200 ft | 426 kts | 289° |
| 2026-05-01 10:15 | 37.69146 | 101.22937 | 34187 ft | 426 kts | 291° |
| 2026-05-01 10:15 | 37.72088 | 101.16464 | 34173 ft | 424 kts | 291° |
| 2026-05-01 10:16 | 37.74986 | 101.09986 | 34171 ft | 422 kts | 290° |
| 2026-05-01 10:17 | 37.78773 | 101.01354 | 34172 ft | 421 kts | 290° |
| 2026-05-01 10:17 | 37.83037 | 100.91630 | 34171 ft | 421 kts | 290° |
| 2026-05-01 10:18 | 37.87253 | 100.81929 | 34167 ft | 421 kts | 290° |
| 2026-05-01 10:19 | 37.90060 | 100.75416 | 34191 ft | 422 kts | 290° |
| 2026-05-01 10:19 | 37.92864 | 100.68898 | 34182 ft | 421 kts | 290° |
| 2026-05-01 10:20 | 37.97068 | 100.59114 | 34195 ft | 421 kts | 290° |
| 2026-05-01 10:20 | 37.99867 | 100.52596 | 34202 ft | 421 kts | 289° |
| 2026-05-01 10:21 | 38.04058 | 100.42809 | 34209 ft | 420 kts | 289° |
| 2026-05-01 10:22 | 38.08212 | 100.33054 | 34195 ft | 420 kts | 289° |
| 2026-05-01 10:23 | 38.12388 | 100.23251 | 34205 ft | 421 kts | 289° |
| 2026-05-01 10:23 | 38.16517 | 100.13551 | 34199 ft | 408 kts | 288° |
| 2026-05-01 10:24 | 38.21842 | 100.00889 | 34191 ft | 406 kts | 288° |
| 2026-05-01 10:25 | 38.27359 | 99.88318 | 34206 ft | 408 kts | 289° |
| 2026-05-01 10:26 | 38.30143 | 99.82030 | 34233 ft | 407 kts | 289° |
| 2026-05-01 10:27 | 38.35625 | 99.69482 | 34213 ft | 405 kts | 288° |
| 2026-05-01 10:28 | 38.39718 | 99.60062 | 34178 ft | 405 kts | 288° |
| 2026-05-01 10:28 | 38.43815 | 99.50626 | 34173 ft | 406 kts | 288° |
| 2026-05-01 10:29 | 38.47913 | 99.41161 | 34182 ft | 407 kts | 288° |
| 2026-05-01 10:30 | 38.53387 | 99.28465 | 34157 ft | 410 kts | 288° |
| 2026-05-01 10:31 | 38.58889 | 99.15684 | 34169 ft | 411 kts | 288° |
| 2026-05-01 10:32 | 38.63007 | 99.06077 | 34187 ft | 411 kts | 289° |
| 2026-05-01 10:33 | 38.68471 | 98.93265 | 34162 ft | 409 kts | 289° |
| 2026-05-01 10:34 | 38.72531 | 98.83721 | 34180 ft | 408 kts | 289° |
| 2026-05-01 10:34 | 38.75236 | 98.77322 | 34162 ft | 408 kts | 288° |
| 2026-05-01 10:35 | 38.79294 | 98.67716 | 34171 ft | 409 kts | 289° |
| 2026-05-01 10:35 | 38.82008 | 98.61302 | 34190 ft | 409 kts | 290° |
| 2026-05-01 10:36 | 38.86067 | 98.51656 | 34183 ft | 409 kts | 289° |
| 2026-05-01 10:37 | 38.88743 | 98.45263 | 34168 ft | 409 kts | 289° |
| 2026-05-01 10:37 | 38.92783 | 98.35615 | 34178 ft | 408 kts | 289° |
| 2026-05-01 10:38 | 38.95474 | 98.29182 | 34189 ft | 409 kts | 290° |
| 2026-05-01 10:38 | 38.98157 | 98.22748 | 34178 ft | 408 kts | 290° |
| 2026-05-01 10:39 | 39.00832 | 98.16306 | 34181 ft | 408 kts | 290° |
| 2026-05-01 10:39 | 39.03504 | 98.09855 | 34199 ft | 409 kts | 290° |
| 2026-05-01 10:40 | 39.06160 | 98.03430 | 34207 ft | 409 kts | 290° |
| 2026-05-01 10:40 | 39.08834 | 97.96969 | 34240 ft | 409 kts | 290° |
| 2026-05-01 10:41 | 39.11508 | 97.90497 | 34205 ft | 409 kts | 291° |
| 2026-05-01 10:42 | 39.15522 | 97.80744 | 34234 ft | 412 kts | 291° |
| 2026-05-01 10:42 | 39.18202 | 97.74201 | 34239 ft | 412 kts | 291° |
| 2026-05-01 10:43 | 39.20873 | 97.67660 | 34243 ft | 412 kts | 291° |
| 2026-05-01 10:43 | 39.23545 | 97.61119 | 34243 ft | 412 kts | 291° |
| 2026-05-01 10:44 | 39.26208 | 97.54558 | 34263 ft | 413 kts | 293° |
| 2026-05-01 10:44 | 39.28853 | 97.47976 | 34252 ft | 414 kts | 293° |
| 2026-05-01 10:45 | 39.31505 | 97.41378 | 34257 ft | 414 kts | 293° |
| 2026-05-01 10:45 | 39.34165 | 97.34756 | 34260 ft | 415 kts | 293° |
| 2026-05-01 10:46 | 39.36799 | 97.28177 | 34282 ft | 415 kts | 294° |
| 2026-05-01 10:46 | 39.39458 | 97.21536 | 34274 ft | 415 kts | 294° |
| 2026-05-01 10:47 | 39.42105 | 97.14898 | 34270 ft | 415 kts | 294° |
| 2026-05-01 10:47 | 39.44731 | 97.08294 | 34263 ft | 415 kts | 294° |
| 2026-05-01 10:48 | 39.47390 | 97.01606 | 34262 ft | 415 kts | 294° |
| 2026-05-01 10:48 | 39.50034 | 96.95019 | 34262 ft | 416 kts | 294° |
| 2026-05-01 10:49 | 39.52700 | 96.88378 | 34260 ft | 416 kts | 294° |
| 2026-05-01 10:49 | 39.55355 | 96.81724 | 34256 ft | 416 kts | 295° |
| 2026-05-01 10:50 | 39.58008 | 96.75065 | 34252 ft | 416 kts | 295° |
| 2026-05-01 10:50 | 39.60659 | 96.68398 | 34262 ft | 416 kts | 295° |
| 2026-05-01 10:51 | 39.63303 | 96.61733 | 34282 ft | 416 kts | 295° |
| 2026-05-01 10:51 | 39.65942 | 96.55041 | 34265 ft | 417 kts | 295° |
| 2026-05-01 10:52 | 39.68583 | 96.48343 | 34264 ft | 417 kts | 295° |
| 2026-05-01 10:52 | 39.71206 | 96.41662 | 34253 ft | 417 kts | 295° |
| 2026-05-01 10:53 | 39.73840 | 96.34934 | 34254 ft | 418 kts | 295° |
| 2026-05-01 10:53 | 39.76474 | 96.28192 | 34254 ft | 419 kts | 295° |
| 2026-05-01 10:54 | 39.79114 | 96.21428 | 34229 ft | 419 kts | 295° |
| 2026-05-01 10:54 | 39.81746 | 96.14663 | 34237 ft | 419 kts | 295° |
| 2026-05-01 10:55 | 39.84371 | 96.07887 | 34227 ft | 419 kts | 295° |
| 2026-05-01 10:55 | 39.86999 | 96.01094 | 34223 ft | 420 kts | 295° |
| 2026-05-01 10:56 | 39.89627 | 95.94302 | 34200 ft | 421 kts | 296° |
| 2026-05-01 10:56 | 39.92262 | 95.87481 | 34193 ft | 422 kts | 296° |
| 2026-05-01 10:57 | 39.94896 | 95.80641 | 34200 ft | 423 kts | 296° |
| 2026-05-01 10:57 | 39.97535 | 95.73783 | 34201 ft | 423 kts | 296° |
| 2026-05-01 10:58 | 40.00143 | 95.66960 | 34178 ft | 423 kts | 296° |
| 2026-05-01 10:58 | 40.02768 | 95.60089 | 34178 ft | 423 kts | 296° |
| 2026-05-01 10:59 | 40.05388 | 95.53204 | 34177 ft | 423 kts | 296° |
| 2026-05-01 10:59 | 40.07999 | 95.46323 | 34187 ft | 423 kts | 296° |
| 2026-05-01 11:00 | 40.10616 | 95.39425 | 34170 ft | 423 kts | 296° |
| 2026-05-01 11:00 | 40.13228 | 95.32535 | 34164 ft | 423 kts | 296° |
| 2026-05-01 11:01 | 40.15832 | 95.25641 | 34163 ft | 423 kts | 297° |
| 2026-05-01 11:01 | 40.18408 | 95.18784 | 34143 ft | 423 kts | 297° |
| 2026-05-01 11:02 | 40.20998 | 95.11876 | 34147 ft | 423 kts | 297° |
| 2026-05-01 11:02 | 40.23623 | 95.04993 | 34151 ft | 423 kts | 297° |
| 2026-05-01 11:03 | 40.26256 | 94.98108 | 34141 ft | 423 kts | 297° |
| 2026-05-01 11:03 | 40.28879 | 94.91210 | 34120 ft | 423 kts | 297° |
| 2026-05-01 11:04 | 40.31852 | 94.84582 | 34118 ft | 422 kts | 308° |
| 2026-05-01 11:04 | 40.35512 | 94.78555 | 34126 ft | 423 kts | 308° |
| 2026-05-01 11:05 | 40.39175 | 94.72523 | 34139 ft | 423 kts | 309° |
| 2026-05-01 11:05 | 40.42835 | 94.66471 | 34136 ft | 424 kts | 309° |
| 2026-05-01 11:06 | 40.46489 | 94.60402 | 34133 ft | 424 kts | 308° |
| 2026-05-01 11:06 | 40.49532 | 94.55336 | 34120 ft | 424 kts | 309° |
| 2026-05-01 11:07 | 40.55628 | 94.45202 | 34137 ft | 424 kts | 309° |
| 2026-05-01 11:07 | 40.58689 | 94.40099 | 34148 ft | 424 kts | 309° |
| 2026-05-01 11:08 | 40.62343 | 94.33997 | 34158 ft | 425 kts | 309° |
| 2026-05-01 11:09 | 40.67821 | 94.24814 | 34158 ft | 425 kts | 309° |
| 2026-05-01 11:09 | 40.71446 | 94.18710 | 34139 ft | 426 kts | 309° |
| 2026-05-01 11:10 | 40.76924 | 94.09483 | 34158 ft | 426 kts | 309° |
| 2026-05-01 11:10 | 40.80580 | 94.03332 | 34162 ft | 426 kts | 309° |
| 2026-05-01 11:11 | 40.84227 | 93.97169 | 34162 ft | 426 kts | 309° |
| 2026-05-01 11:11 | 40.87871 | 93.90987 | 34168 ft | 426 kts | 309° |
| 2026-05-01 11:12 | 40.91516 | 93.84798 | 34162 ft | 427 kts | 309° |
| 2026-05-01 11:12 | 40.95286 | 93.78735 | 34141 ft | 427 kts | 312° |
| 2026-05-01 11:13 | 40.99187 | 93.72820 | 34146 ft | 427 kts | 312° |
| 2026-05-01 11:13 | 41.03069 | 93.66920 | 34151 ft | 427 kts | 312° |
| 2026-05-01 11:14 | 41.06930 | 93.60936 | 34157 ft | 427 kts | 311° |
| 2026-05-01 11:14 | 41.10778 | 93.54924 | 34160 ft | 427 kts | 311° |
| 2026-05-01 11:15 | 41.14620 | 93.48899 | 34157 ft | 427 kts | 311° |
| 2026-05-01 11:15 | 41.18470 | 93.42881 | 34160 ft | 427 kts | 311° |
| 2026-05-01 11:16 | 41.22325 | 93.36854 | 34162 ft | 427 kts | 311° |
| 2026-05-01 11:16 | 41.26163 | 93.30822 | 34161 ft | 427 kts | 311° |
| 2026-05-01 11:17 | 41.30002 | 93.24782 | 34164 ft | 427 kts | 311° |
| 2026-05-01 11:17 | 41.33814 | 93.18765 | 34165 ft | 428 kts | 311° |
| 2026-05-01 11:18 | 41.37654 | 93.12698 | 34165 ft | 428 kts | 311° |
| 2026-05-01 11:18 | 41.41489 | 93.06629 | 34166 ft | 428 kts | 311° |
| 2026-05-01 11:19 | 41.45321 | 93.00555 | 34146 ft | 428 kts | 311° |
| 2026-05-01 11:19 | 41.49154 | 92.94470 | 34152 ft | 428 kts | 311° |
| 2026-05-01 11:20 | 41.52983 | 92.88363 | 34163 ft | 428 kts | 311° |
| 2026-05-01 11:20 | 41.56805 | 92.82255 | 34166 ft | 429 kts | 312° |
| 2026-05-01 11:21 | 41.60629 | 92.76148 | 34165 ft | 429 kts | 312° |
| 2026-05-01 11:21 | 41.64452 | 92.70028 | 34165 ft | 429 kts | 311° |
| 2026-05-01 11:22 | 41.68243 | 92.63928 | 34146 ft | 429 kts | 312° |
| 2026-05-01 11:22 | 41.72058 | 92.57784 | 34153 ft | 429 kts | 312° |
| 2026-05-01 11:23 | 41.75875 | 92.51642 | 34167 ft | 429 kts | 312° |
| 2026-05-01 11:23 | 41.79687 | 92.45491 | 34167 ft | 429 kts | 312° |
| 2026-05-01 11:24 | 41.83492 | 92.39331 | 34166 ft | 429 kts | 312° |
| 2026-05-01 11:25 | 41.89199 | 92.30081 | 34170 ft | 429 kts | 312° |
| 2026-05-01 11:25 | 41.94893 | 92.20804 | 34149 ft | 429 kts | 311° |
| 2026-05-01 11:26 | 42.00566 | 92.11548 | 34164 ft | 429 kts | 312° |
| 2026-05-01 11:27 | 42.04358 | 92.05355 | 34161 ft | 429 kts | 312° |
| 2026-05-01 11:27 | 42.08139 | 91.99147 | 34163 ft | 429 kts | 311° |
| 2026-05-01 11:28 | 42.11917 | 91.92932 | 34168 ft | 429 kts | 312° |
| 2026-05-01 11:28 | 42.15692 | 91.86712 | 34152 ft | 429 kts | 311° |
| 2026-05-01 11:29 | 42.21357 | 91.77370 | 34171 ft | 428 kts | 314° |
| 2026-05-01 11:29 | 42.25857 | 91.72250 | 34164 ft | 422 kts | 330° |
| 2026-05-01 11:30 | 42.28370 | 91.70204 | 34161 ft | 422 kts | 330° |
| 2026-05-01 11:30 | 42.33400 | 91.66097 | 34160 ft | 422 kts | 330° |
| 2026-05-01 11:31 | 42.38422 | 91.61982 | 34151 ft | 422 kts | 330° |
| 2026-05-01 11:31 | 42.43440 | 91.57855 | 34159 ft | 422 kts | 330° |
| 2026-05-01 11:32 | 42.48458 | 91.53731 | 34149 ft | 422 kts | 330° |
| 2026-05-01 11:32 | 42.53479 | 91.49596 | 34123 ft | 422 kts | 330° |
| 2026-05-01 11:33 | 42.58467 | 91.45461 | 34123 ft | 422 kts | 330° |
| 2026-05-01 11:33 | 42.63491 | 91.41312 | 34128 ft | 422 kts | 330° |
| 2026-05-01 11:34 | 42.68517 | 91.37149 | 34133 ft | 422 kts | 330° |
| 2026-05-01 11:34 | 42.73537 | 91.32981 | 34126 ft | 422 kts | 330° |
| 2026-05-01 11:35 | 42.78514 | 91.28831 | 34127 ft | 422 kts | 330° |
| 2026-05-01 11:35 | 42.83520 | 91.24655 | 34131 ft | 422 kts | 329° |
| 2026-05-01 11:36 | 42.88435 | 91.20281 | 34128 ft | 423 kts | 321° |
| 2026-05-01 11:36 | 42.92672 | 91.14685 | 34128 ft | 424 kts | 317° |
| 2026-05-01 11:37 | 42.96861 | 91.08995 | 34118 ft | 425 kts | 317° |
| 2026-05-01 11:37 | 43.01055 | 91.03299 | 34130 ft | 425 kts | 317° |
| 2026-05-01 11:38 | 43.05248 | 90.97592 | 34140 ft | 425 kts | 316° |
| 2026-05-01 11:38 | 43.09412 | 90.91915 | 34143 ft | 426 kts | 316° |
| 2026-05-01 11:39 | 43.13609 | 90.86184 | 34152 ft | 426 kts | 316° |
| 2026-05-01 11:39 | 43.17797 | 90.80439 | 34155 ft | 426 kts | 316° |
| 2026-05-01 11:40 | 43.21982 | 90.74686 | 34170 ft | 426 kts | 316° |
| 2026-05-01 11:40 | 43.26169 | 90.68917 | 34179 ft | 426 kts | 316° |
| 2026-05-01 11:41 | 43.30352 | 90.63148 | 34203 ft | 426 kts | 316° |
| 2026-05-01 11:41 | 43.34522 | 90.57372 | 34217 ft | 426 kts | 316° |
| 2026-05-01 11:42 | 43.38683 | 90.51579 | 34238 ft | 426 kts | 315° |
| 2026-05-01 11:42 | 43.42700 | 90.45652 | 34241 ft | 426 kts | 314° |
| 2026-05-01 11:43 | 43.46683 | 90.39607 | 34245 ft | 427 kts | 314° |
| 2026-05-01 11:43 | 43.50687 | 90.33560 | 34233 ft | 427 kts | 314° |
| 2026-05-01 11:44 | 43.56727 | 90.24523 | 34261 ft | 427 kts | 314° |
| 2026-05-01 11:44 | 43.60732 | 90.18516 | 34251 ft | 427 kts | 314° |
| 2026-05-01 11:45 | 43.64751 | 90.12463 | 34254 ft | 428 kts | 314° |
| 2026-05-01 11:45 | 43.68774 | 90.06383 | 34244 ft | 428 kts | 314° |
| 2026-05-01 11:46 | 43.72821 | 90.00338 | 34245 ft | 429 kts | 314° |
| 2026-05-01 11:46 | 43.76881 | 89.94290 | 34227 ft | 428 kts | 314° |
| 2026-05-01 11:47 | 43.80921 | 89.88225 | 34234 ft | 428 kts | 314° |
| 2026-05-01 11:47 | 43.84959 | 89.82146 | 34221 ft | 428 kts | 314° |
| 2026-05-01 11:48 | 43.88974 | 89.76102 | 34223 ft | 429 kts | 314° |
| 2026-05-01 11:48 | 43.93014 | 89.70001 | 34216 ft | 429 kts | 314° |
| 2026-05-01 11:49 | 43.96907 | 89.63715 | 34210 ft | 431 kts | 305° |
| 2026-05-01 11:49 | 43.99350 | 89.56101 | 34207 ft | 437 kts | 286° |
| 2026-05-01 11:50 | 44.00383 | 89.47761 | 34207 ft | 439 kts | 282° |
| 2026-05-01 11:50 | 44.01358 | 89.39387 | 34206 ft | 439 kts | 282° |
| 2026-05-01 11:51 | 44.02325 | 89.30984 | 34211 ft | 439 kts | 282° |
| 2026-05-01 11:51 | 44.03269 | 89.22648 | 34198 ft | 440 kts | 282° |
| 2026-05-01 11:52 | 44.04222 | 89.14242 | 34205 ft | 441 kts | 282° |
| 2026-05-01 11:52 | 44.05173 | 89.05812 | 34213 ft | 441 kts | 282° |
| 2026-05-01 11:53 | 44.06111 | 88.97368 | 34221 ft | 441 kts | 281° |
| 2026-05-01 11:53 | 44.06886 | 88.90348 | 34214 ft | 441 kts | 281° |
| 2026-05-01 11:54 | 44.07972 | 88.80490 | 34211 ft | 441 kts | 282° |
| 2026-05-01 11:54 | 44.08280 | 88.77706 | 33984 ft | 440 kts | 282° |
| 2026-05-01 11:54 | 44.08907 | 88.72054 | 32523 ft | 451 kts | 281° |
| 2026-05-01 11:55 | 44.09386 | 88.67738 | 31710 ft | 453 kts | 281° |
| 2026-05-01 11:55 | 44.09865 | 88.63396 | 30849 ft | 456 kts | 281° |
| 2026-05-01 11:55 | 44.10345 | 88.59021 | 29907 ft | 459 kts | 281° |
| 2026-05-01 11:55 | 44.10672 | 88.56041 | 29186 ft | 462 kts | 281° |
| 2026-05-01 11:56 | 44.11157 | 88.51609 | 28203 ft | 464 kts | 281° |
| 2026-05-01 11:56 | 44.11644 | 88.47154 | 27166 ft | 468 kts | 281° |
| 2026-05-01 11:56 | 44.12135 | 88.42664 | 26104 ft | 471 kts | 281° |
| 2026-05-01 11:56 | 44.12625 | 88.38136 | 25182 ft | 472 kts | 281° |
| 2026-05-01 11:57 | 44.13100 | 88.33710 | 24569 ft | 467 kts | 281° |
| 2026-05-01 11:57 | 44.13576 | 88.29251 | 23823 ft | 465 kts | 281° |
| 2026-05-01 11:57 | 44.14055 | 88.24800 | 23037 ft | 462 kts | 281° |
| 2026-05-01 11:57 | 44.14529 | 88.20402 | 22375 ft | 456 kts | 281° |
| 2026-05-01 11:58 | 44.14993 | 88.16068 | 21715 ft | 450 kts | 281° |
| 2026-05-01 11:58 | 44.15445 | 88.11786 | 21078 ft | 445 kts | 280° |
| 2026-05-01 11:58 | 44.16279 | 88.03346 | 19838 ft | 435 kts | 276° |
| 2026-05-01 11:59 | 44.16265 | 87.99147 | 19206 ft | 434 kts | 267° |
| 2026-05-01 11:59 | 44.15736 | 87.95025 | 18622 ft | 432 kts | 256° |
| 2026-05-01 11:59 | 44.14644 | 87.91137 | 18010 ft | 430 kts | 245° |
| 2026-05-01 12:00 | 44.11868 | 87.83899 | 16933 ft | 417 kts | 244° |
| 2026-05-01 12:00 | 44.10504 | 87.80352 | 16431 ft | 411 kts | 244° |
| 2026-05-01 12:00 | 44.07681 | 87.73610 | 15456 ft | 402 kts | 234° |
| 2026-05-01 12:01 | 44.05825 | 87.70734 | 14971 ft | 399 kts | 225° |
| 2026-05-01 12:01 | 44.03695 | 87.68286 | 14504 ft | 395 kts | 220° |
| 2026-05-01 12:01 | 44.01550 | 87.65937 | 14012 ft | 391 kts | 220° |
| 2026-05-01 12:01 | 43.99413 | 87.63598 | 13495 ft | 388 kts | 219° |
| 2026-05-01 12:02 | 43.97312 | 87.61298 | 13183 ft | 378 kts | 219° |
| 2026-05-01 12:02 | 43.95285 | 87.59082 | 13083 ft | 364 kts | 220° |
| 2026-05-01 12:02 | 43.93332 | 87.56949 | 12930 ft | 352 kts | 219° |
| 2026-05-01 12:02 | 43.91306 | 87.55138 | 12777 ft | 342 kts | 211° |
| 2026-05-01 12:03 | 43.89257 | 87.53573 | 12616 ft | 331 kts | 210° |
| 2026-05-01 12:03 | 43.87269 | 87.52055 | 12484 ft | 321 kts | 210° |
| 2026-05-01 12:03 | 43.85344 | 87.50584 | 12341 ft | 311 kts | 210° |
| 2026-05-01 12:03 | 43.83483 | 87.49158 | 12207 ft | 301 kts | 210° |
| 2026-05-01 12:04 | 43.81689 | 87.47760 | 12072 ft | 290 kts | 214° |
| 2026-05-01 12:04 | 43.80225 | 87.45940 | 11954 ft | 278 kts | 234° |
| 2026-05-01 12:04 | 43.79279 | 87.43635 | 11583 ft | 276 kts | 253° |
| 2026-05-01 12:04 | 43.78735 | 87.41097 | 11204 ft | 275 kts | 256° |
| 2026-05-01 12:05 | 43.78196 | 87.38549 | 10837 ft | 275 kts | 255° |
| 2026-05-01 12:05 | 43.77116 | 87.33507 | 10157 ft | 273 kts | 255° |
| 2026-05-01 12:05 | 43.76572 | 87.30976 | 9647 ft | 277 kts | 254° |
| 2026-05-01 12:06 | 43.76031 | 87.28451 | 9224 ft | 271 kts | 254° |
| 2026-05-01 12:06 | 43.75517 | 87.25977 | 8846 ft | 266 kts | 259° |
| 2026-05-01 12:06 | 43.75611 | 87.23483 | 8467 ft | 261 kts | 294° |
| 2026-05-01 12:06 | 43.76720 | 87.21573 | 8086 ft | 257 kts | 330° |
| 2026-05-01 12:07 | 43.78370 | 87.20691 | 7700 ft | 255 kts | 344° |
| 2026-05-01 12:07 | 43.80086 | 87.19987 | 7317 ft | 257 kts | 346° |
| 2026-05-01 12:07 | 43.81800 | 87.19291 | 6949 ft | 257 kts | 347° |
| 2026-05-01 12:07 | 43.83528 | 87.18604 | 6594 ft | 259 kts | 350° |
| 2026-05-01 12:08 | 43.85278 | 87.18668 | 6198 ft | 252 kts | 24° |
| 2026-05-01 12:08 | 43.86609 | 87.20137 | 5822 ft | 246 kts | 61° |
| 2026-05-01 12:08 | 43.87198 | 87.22340 | 5423 ft | 246 kts | 77° |
| 2026-05-01 12:08 | 43.87593 | 87.24617 | 5079 ft | 245 kts | 76° |
| 2026-05-01 12:09 | 43.88048 | 87.26866 | 4756 ft | 235 kts | 74° |
| 2026-05-01 12:09 | 43.88495 | 87.28955 | 4445 ft | 221 kts | 74° |
| 2026-05-01 12:09 | 43.88916 | 87.30918 | 4169 ft | 200 kts | 74° |
| 2026-05-01 12:09 | 43.89286 | 87.32650 | 3947 ft | 176 kts | 73° |
| 2026-05-01 12:10 | 43.89618 | 87.34209 | 3701 ft | 163 kts | 71° |
| 2026-05-01 12:10 | 43.90244 | 87.37145 | 3296 ft | 157 kts | 72° |
| 2026-05-01 12:10 | 43.90550 | 87.38592 | 3107 ft | 155 kts | 72° |
| 2026-05-01 12:11 | 43.91152 | 87.41449 | 2688 ft | 155 kts | 73° |
| 2026-05-01 12:11 | 43.91456 | 87.42895 | 2489 ft | 157 kts | 72° |
| 2026-05-01 12:11 | 43.91770 | 87.44336 | 2273 ft | 156 kts | 72° |
| 2026-05-01 12:12 | 43.92074 | 87.45786 | 2148 ft | 154 kts | 72° |
| 2026-05-01 12:12 | 43.92347 | 87.47062 | 2134 ft | 113 kts | 73° |
| 2026-05-01 12:12 | 43.92519 | 87.47869 | 2137 ft | 62 kts | 73° |
| 2026-05-01 12:12 | 43.92617 | 87.48322 | 2135 ft | 46 kts | 73° |
| 2026-05-01 12:13 | 43.92638 | 87.48565 | 2137 ft | 19 kts | 126° |
| 2026-05-01 12:13 | 43.92517 | 87.48610 | 2135 ft | 16 kts | 197° |
| 2026-05-01 12:13 | 43.92477 | 87.48541 | 2135 ft | 7 kts | 207° |
| 2026-05-01 12:13 | 43.92438 | 87.48542 | 2135 ft | 6 kts | 164° |
| 2026-05-01 12:14 | 43.92360 | 87.48573 | 2136 ft | 17 kts | 174° |
| 2026-05-01 12:14 | 43.92284 | 87.48435 | 2134 ft | 21 kts | 253° |
| 2026-05-01 12:14 | 43.92245 | 87.48249 | 2136 ft | 19 kts | 253° |
| 2026-05-01 12:14 | 43.92209 | 87.48076 | 2135 ft | 18 kts | 253° |
| 2026-05-01 12:15 | 43.92174 | 87.47915 | 2136 ft | 17 kts | 253° |
| 2026-05-01 12:15 | 43.92146 | 87.47781 | 2136 ft | 8 kts | 254° |
| 2026-05-01 12:15 | 43.92119 | 87.47740 | 2136 ft | 5 kts | 178° |
| 2026-05-01 12:15 | 43.92089 | 87.47750 | 2136 ft | 4 kts | 166° |
| 2026-05-01 12:16 | 43.92070 | 87.47757 | 2136 ft | 2 kts | 163° |
| 2026-05-01 12:16 | 43.92060 | 87.47761 | 2135 ft | 2 kts | 162° |
| 2026-05-01 12:16 | 43.92045 | 87.47768 | 2136 ft | 0 kts | 161° |